Holbeach, United Kingdom
Current Conditions -  °F | °C
As of 11:50 AM on Friday 28 Nov 2014 (Local Time) from EGXC Reporting Station
Haze Haze  
Wind Chill: 11°   Ceiling: 600
Heat Index: 11°   Visibility: 2.5mi
Dew Point: 10°   Wind: 15mph
Humidity: 94%   Direction: 90°E
Pressure: 29.68"   Gusts: NA
Location:  52.8°N, 0.01°E
Report Text: EGXC 281150Z 09013KT 4000 BR SCT003 OVC006 11/10 Q1005 YLO2 TEMPO 2500 -DZ YLO2
Loading
Personal Weather Stations






























Interactive Weather Map New forecast layout! Learn more

10-Day Weather Forecast

Advertisements
Track Severe Weather on mobile